sensor_id;sensor_type;location;lat;lon;timestamp;pressure;altitude;pressure_sealevel;temperature;humidity
9935;BME280;5006;41.828;23.478;2022-09-27T00:01:01;89693.56;;;17.96;100.00
9935;BME280;5006;41.828;23.478;2022-09-27T00:02:05;89691.31;;;17.64;100.00
9935;BME280;5006;41.828;23.478;2022-09-27T00:03:11;89692.53;;;17.72;100.00
9935;BME280;5006;41.828;23.478;2022-09-27T00:04:16;89687.09;;;17.63;100.00
9935;BME280;5006;41.828;23.478;2022-09-27T00:05:22;89703.63;;;17.35;100.00
9935;BME280;5006;41.828;23.478;2022-09-27T00:06:30;89699.78;;;17.45;100.00
9935;BME280;5006;41.828;23.478;2022-09-27T00:07:36;89688.53;;;17.55;100.00
9935;BME280;5006;41.828;23.478;2022-09-27T00:08:41;89682.16;;;17.70;100.00
9935;BME280;5006;41.828;23.478;2022-09-27T00:09:47;89686.88;;;17.79;100.00
9935;BME280;5006;41.828;23.478;2022-09-27T00:10:58;89686.94;;;17.24;100.00
9935;BME280;5006;41.828;23.478;2022-09-27T00:12:04;89683.28;;;16.96;100.00
9935;BME280;5006;41.828;23.478;2022-09-27T00:13:09;89685.97;;;16.96;100.00
9935;BME280;5006;41.828;23.478;2022-09-27T00:14:16;89682.41;;;17.21;100.00
9935;BME280;5006;41.828;23.478;2022-09-27T00:15:21;89675.13;;;17.51;100.00
9935;BME280;5006;41.828;23.478;2022-09-27T00:16:29;89681.16;;;17.55;100.00
9935;BME280;5006;41.828;23.478;2022-09-27T00:17:36;89677.41;;;17.83;100.00
9935;BME280;5006;41.828;23.478;2022-09-27T00:18:41;89676.91;;;17.76;100.00
9935;BME280;5006;41.828;23.478;2022-09-27T00:19:46;89677.50;;;17.49;100.00
9935;BME280;5006;41.828;23.478;2022-09-27T00:20:52;89679.72;;;17.42;100.00
9935;BME280;5006;41.828;23.478;2022-09-27T00:21:58;89671.19;;;17.31;100.00
9935;BME280;5006;41.828;23.478;2022-09-27T00:23:04;89671.06;;;17.56;100.00
9935;BME280;5006;41.828;23.478;2022-09-27T00:24:11;89671.81;;;17.78;100.00
9935;BME280;5006;41.828;23.478;2022-09-27T00:25:17;89668.78;;;17.76;100.00
9935;BME280;5006;41.828;23.478;2022-09-27T00:26:22;89671.63;;;17.30;100.00
9935;BME280;5006;41.828;23.478;2022-09-27T00:27:27;89675.63;;;17.16;100.00
9935;BME280;5006;41.828;23.478;2022-09-27T00:28:33;89676.19;;;17.33;100.00
9935;BME280;5006;41.828;23.478;2022-09-27T00:29:39;89675.22;;;17.27;100.00
9935;BME280;5006;41.828;23.478;2022-09-27T00:30:44;89672.00;;;17.19;100.00
9935;BME280;5006;41.828;23.478;2022-09-27T00:31:49;89673.16;;;17.31;100.00
9935;BME280;5006;41.828;23.478;2022-09-27T00:32:55;89671.50;;;17.12;100.00
9935;BME280;5006;41.828;23.478;2022-09-27T00:34:02;89666.09;;;17.12;100.00
9935;BME280;5006;41.828;23.478;2022-09-27T00:35:08;89658.66;;;17.03;100.00
9935;BME280;5006;41.828;23.478;2022-09-27T00:36:13;89652.34;;;17.28;100.00
9935;BME280;5006;41.828;23.478;2022-09-27T00:37:19;89649.13;;;17.63;100.00
9935;BME280;5006;41.828;23.478;2022-09-27T00:38:25;89648.41;;;17.41;100.00
9935;BME280;5006;41.828;23.478;2022-09-27T00:39:30;89642.88;;;17.84;100.00
9935;BME280;5006;41.828;23.478;2022-09-27T00:40:35;89652.13;;;17.95;100.00
9935;BME280;5006;41.828;23.478;2022-09-27T00:41:41;89648.56;;;18.16;100.00
9935;BME280;5006;41.828;23.478;2022-09-27T00:42:46;89651.13;;;18.11;100.00
9935;BME280;5006;41.828;23.478;2022-09-27T00:43:53;89652.63;;;18.03;100.00
9935;BME280;5006;41.828;23.478;2022-09-27T00:45:04;89651.06;;;17.93;100.00
9935;BME280;5006;41.828;23.478;2022-09-27T00:46:12;89645.78;;;17.89;100.00
9935;BME280;5006;41.828;23.478;2022-09-27T00:47:23;89643.72;;;17.42;100.00
9935;BME280;5006;41.828;23.478;2022-09-27T00:48:34;89640.81;;;17.15;100.00
9935;BME280;5006;41.828;23.478;2022-09-27T00:49:42;89636.78;;;17.41;100.00
9935;BME280;5006;41.828;23.478;2022-09-27T00:50:51;89635.59;;;17.72;100.00
9935;BME280;5006;41.828;23.478;2022-09-27T00:52:01;89642.50;;;17.94;100.00
9935;BME280;5006;41.828;23.478;2022-09-27T00:53:13;89647.19;;;18.12;100.00
9935;BME280;5006;41.828;23.478;2022-09-27T00:54:21;89648.84;;;17.40;100.00
9935;BME280;5006;41.828;23.478;2022-09-27T00:55:33;89647.75;;;17.16;100.00
9935;BME280;5006;41.828;23.478;2022-09-27T00:56:40;89637.69;;;17.16;100.00
9935;BME280;5006;41.828;23.478;2022-09-27T00:57:46;89628.84;;;17.76;100.00
9935;BME280;5006;41.828;23.478;2022-09-27T00:58:55;89620.63;;;17.98;100.00
9935;BME280;5006;41.828;23.478;2022-09-27T01:00:05;89610.88;;;17.40;100.00
9935;BME280;5006;41.828;23.478;2022-09-27T01:01:13;89597.66;;;17.20;100.00
9935;BME280;5006;41.828;23.478;2022-09-27T01:02:19;89579.31;;;17.24;100.00
9935;BME280;5006;41.828;23.478;2022-09-27T01:03:28;89585.13;;;17.74;100.00
9935;BME280;5006;41.828;23.478;2022-09-27T01:04:38;89585.00;;;17.78;100.00
9935;BME280;5006;41.828;23.478;2022-09-27T01:05:44;89586.84;;;17.50;100.00
9935;BME280;5006;41.828;23.478;2022-09-27T01:06:50;89589.47;;;17.63;100.00
9935;BME280;5006;41.828;23.478;2022-09-27T01:07:55;89594.00;;;17.66;100.00
9935;BME280;5006;41.828;23.478;2022-09-27T01:09:07;89589.88;;;17.52;100.00
9935;BME280;5006;41.828;23.478;2022-09-27T01:10:14;89581.81;;;17.70;100.00
9935;BME280;5006;41.828;23.478;2022-09-27T01:11:31;89577.91;;;17.80;100.00
9935;BME280;5006;41.828;23.478;2022-09-27T01:12:47;89577.56;;;17.60;100.00
9935;BME280;5006;41.828;23.478;2022-09-27T01:14:09;89583.34;;;17.41;100.00
9935;BME280;5006;41.828;23.478;2022-09-27T01:15:19;89588.84;;;17.07;100.00
9935;BME280;5006;41.828;23.478;2022-09-27T01:16:33;89587.88;;;17.44;100.00
9935;BME280;5006;41.828;23.478;2022-09-27T01:17:50;89591.31;;;17.14;100.00
9935;BME280;5006;41.828;23.478;2022-09-27T01:19:08;89602.78;;;16.97;100.00
9935;BME280;5006;41.828;23.478;2022-09-27T01:21:58;89608.31;;;16.93;100.00
9935;BME280;5006;41.828;23.478;2022-09-27T01:23:19;89608.94;;;16.97;100.00
9935;BME280;5006;41.828;23.478;2022-09-27T01:24:46;89613.34;;;16.82;100.00
9935;BME280;5006;41.828;23.478;2022-09-27T01:26:03;89611.63;;;16.88;100.00
9935;BME280;5006;41.828;23.478;2022-09-27T01:28:57;89597.53;;;16.59;100.00
9935;BME280;5006;41.828;23.478;2022-09-27T01:30:27;89591.75;;;17.13;100.00
9935;BME280;5006;41.828;23.478;2022-09-27T01:31:40;89583.03;;;16.87;100.00
9935;BME280;5006;41.828;23.478;2022-09-27T01:33:01;89580.88;;;17.34;100.00
9935;BME280;5006;41.828;23.478;2022-09-27T01:34:15;89592.72;;;17.28;100.00
9935;BME280;5006;41.828;23.478;2022-09-27T01:35:29;89589.06;;;17.43;100.00
9935;BME280;5006;41.828;23.478;2022-09-27T01:36:43;89590.50;;;17.56;100.00
9935;BME280;5006;41.828;23.478;2022-09-27T01:38:02;89593.56;;;17.16;100.00
9935;BME280;5006;41.828;23.478;2022-09-27T01:39:21;89595.78;;;16.65;100.00
9935;BME280;5006;41.828;23.478;2022-09-27T01:41:02;89598.06;;;16.88;100.00
9935;BME280;5006;41.828;23.478;2022-09-27T01:42:46;89586.09;;;17.29;100.00
9935;BME280;5006;41.828;23.478;2022-09-27T01:44:01;89577.06;;;17.23;100.00
9935;BME280;5006;41.828;23.478;2022-09-27T01:45:13;89580.91;;;17.13;100.00
9935;BME280;5006;41.828;23.478;2022-09-27T01:46:48;89574.38;;;17.62;100.00
9935;BME280;5006;41.828;23.478;2022-09-27T01:48:14;89573.22;;;17.63;100.00
9935;BME280;5006;41.828;23.478;2022-09-27T01:49:47;89576.00;;;17.90;100.00
9935;BME280;5006;41.828;23.478;2022-09-27T01:51:01;89576.38;;;18.19;100.00
9935;BME280;5006;41.828;23.478;2022-09-27T01:52:10;89569.06;;;17.89;100.00
9935;BME280;5006;41.828;23.478;2022-09-27T01:53:20;89569.34;;;17.82;100.00
9935;BME280;5006;41.828;23.478;2022-09-27T01:54:46;89575.84;;;17.93;100.00
9935;BME280;5006;41.828;23.478;2022-09-27T01:56:10;89574.25;;;17.65;100.00
9935;BME280;5006;41.828;23.478;2022-09-27T01:57:34;89570.53;;;17.42;100.00
9935;BME280;5006;41.828;23.478;2022-09-27T01:58:48;89573.72;;;17.49;100.00
9935;BME280;5006;41.828;23.478;2022-09-27T01:59:58;89559.19;;;17.64;100.00
9935;BME280;5006;41.828;23.478;2022-09-27T02:01:20;89555.41;;;17.62;100.00
9935;BME280;5006;41.828;23.478;2022-09-27T02:02:32;89559.50;;;17.66;100.00
9935;BME280;5006;41.828;23.478;2022-09-27T02:04:01;89563.41;;;17.65;100.00
9935;BME280;5006;41.828;23.478;2022-09-27T02:05:40;89572.38;;;17.45;100.00
9935;BME280;5006;41.828;23.478;2022-09-27T02:07:23;89566.41;;;17.28;100.00
9935;BME280;5006;41.828;23.478;2022-09-27T02:08:36;89565.81;;;17.33;100.00
9935;BME280;5006;41.828;23.478;2022-09-27T02:09:57;89562.19;;;17.66;100.00
9935;BME280;5006;41.828;23.478;2022-09-27T02:11:12;89563.22;;;17.99;100.00
9935;BME280;5006;41.828;23.478;2022-09-27T02:12:26;89561.13;;;18.12;100.00
9935;BME280;5006;41.828;23.478;2022-09-27T02:13:37;89565.78;;;18.03;100.00
9935;BME280;5006;41.828;23.478;2022-09-27T02:15:09;89557.31;;;17.92;100.00
9935;BME280;5006;41.828;23.478;2022-09-27T02:16:21;89556.41;;;17.95;100.00
9935;BME280;5006;41.828;23.478;2022-09-27T02:17:37;89557.28;;;17.83;100.00
9935;BME280;5006;41.828;23.478;2022-09-27T02:18:50;89567.38;;;17.73;100.00
9935;BME280;5006;41.828;23.478;2022-09-27T02:20:05;89558.50;;;17.82;100.00
9935;BME280;5006;41.828;23.478;2022-09-27T02:21:20;89549.31;;;17.88;100.00
9935;BME280;5006;41.828;23.478;2022-09-27T02:22:31;89546.00;;;17.93;100.00
9935;BME280;5006;41.828;23.478;2022-09-27T02:23:40;89541.97;;;18.07;100.00
9935;BME280;5006;41.828;23.478;2022-09-27T02:24:53;89534.75;;;18.04;100.00
9935;BME280;5006;41.828;23.478;2022-09-27T02:26:07;89533.53;;;18.23;100.00
9935;BME280;5006;41.828;23.478;2022-09-27T02:27:21;89536.22;;;17.96;100.00
9935;BME280;5006;41.828;23.478;2022-09-27T02:28:32;89548.75;;;17.54;100.00
9935;BME280;5006;41.828;23.478;2022-09-27T02:29:45;89551.50;;;17.02;100.00
9935;BME280;5006;41.828;23.478;2022-09-27T02:30:55;89556.88;;;16.93;100.00
9935;BME280;5006;41.828;23.478;2022-09-27T02:32:04;89549.47;;;17.15;100.00
9935;BME280;5006;41.828;23.478;2022-09-27T02:33:10;89549.94;;;16.92;100.00
9935;BME280;5006;41.828;23.478;2022-09-27T02:34:19;89547.81;;;17.18;100.00
9935;BME280;5006;41.828;23.478;2022-09-27T02:35:28;89543.72;;;17.83;100.00
9935;BME280;5006;41.828;23.478;2022-09-27T02:36:35;89542.84;;;17.95;100.00
9935;BME280;5006;41.828;23.478;2022-09-27T02:37:42;89540.16;;;18.04;100.00
9935;BME280;5006;41.828;23.478;2022-09-27T02:38:48;89538.34;;;17.92;100.00
9935;BME280;5006;41.828;23.478;2022-09-27T02:39:55;89539.84;;;17.93;100.00
9935;BME280;5006;41.828;23.478;2022-09-27T02:41:02;89537.25;;;17.89;100.00
9935;BME280;5006;41.828;23.478;2022-09-27T02:42:07;89536.72;;;18.12;100.00
9935;BME280;5006;41.828;23.478;2022-09-27T02:43:16;89536.47;;;18.37;100.00
9935;BME280;5006;41.828;23.478;2022-09-27T02:44:23;89540.06;;;18.43;100.00
9935;BME280;5006;41.828;23.478;2022-09-27T02:45:35;89539.88;;;18.20;100.00
9935;BME280;5006;41.828;23.478;2022-09-27T02:47:04;89542.13;;;17.94;100.00
9935;BME280;5006;41.828;23.478;2022-09-27T02:48:19;89539.50;;;17.82;100.00
9935;BME280;5006;41.828;23.478;2022-09-27T02:49:43;89553.09;;;18.00;100.00
9935;BME280;5006;41.828;23.478;2022-09-27T02:51:25;89547.97;;;17.93;100.00
9935;BME280;5006;41.828;23.478;2022-09-27T02:52:42;89554.28;;;17.81;100.00
9935;BME280;5006;41.828;23.478;2022-09-27T02:54:03;89551.34;;;17.66;100.00
9935;BME280;5006;41.828;23.478;2022-09-27T02:55:41;89559.19;;;17.34;100.00
9935;BME280;5006;41.828;23.478;2022-09-27T02:57:28;89558.34;;;17.16;100.00
9935;BME280;5006;41.828;23.478;2022-09-27T02:59:03;89547.72;;;17.30;100.00
9935;BME280;5006;41.828;23.478;2022-09-27T03:00:36;89532.09;;;17.73;100.00
9935;BME280;5006;41.828;23.478;2022-09-27T03:02:17;89528.47;;;17.67;100.00
9935;BME280;5006;41.828;23.478;2022-09-27T03:03:45;89524.88;;;17.79;100.00
9935;BME280;5006;41.828;23.478;2022-09-27T03:04:58;89513.94;;;18.01;100.00
9935;BME280;5006;41.828;23.478;2022-09-27T03:06:07;89511.69;;;18.08;100.00
9935;BME280;5006;41.828;23.478;2022-09-27T03:07:15;89519.81;;;18.17;100.00
9935;BME280;5006;41.828;23.478;2022-09-27T03:08:20;89514.34;;;17.90;100.00
9935;BME280;5006;41.828;23.478;2022-09-27T03:09:28;89514.69;;;18.10;100.00
9935;BME280;5006;41.828;23.478;2022-09-27T03:10:33;89518.31;;;18.16;100.00
9935;BME280;5006;41.828;23.478;2022-09-27T03:11:39;89509.66;;;17.82;100.00
9935;BME280;5006;41.828;23.478;2022-09-27T03:12:44;89513.25;;;17.70;100.00
9935;BME280;5006;41.828;23.478;2022-09-27T03:13:50;89506.28;;;17.51;100.00
9935;BME280;5006;41.828;23.478;2022-09-27T03:14:56;89496.31;;;17.48;100.00
9935;BME280;5006;41.828;23.478;2022-09-27T03:16:22;89501.13;;;17.44;100.00
9935;BME280;5006;41.828;23.478;2022-09-27T03:17:43;89499.50;;;17.47;100.00
9935;BME280;5006;41.828;23.478;2022-09-27T03:19:08;89501.44;;;17.37;100.00
9935;BME280;5006;41.828;23.478;2022-09-27T03:20:37;89502.03;;;17.41;100.00
9935;BME280;5006;41.828;23.478;2022-09-27T03:21:54;89509.09;;;17.39;100.00
9935;BME280;5006;41.828;23.478;2022-09-27T03:23:01;89511.06;;;17.38;100.00
9935;BME280;5006;41.828;23.478;2022-09-27T03:24:06;89513.88;;;17.04;100.00
9935;BME280;5006;41.828;23.478;2022-09-27T03:25:12;89507.75;;;16.82;100.00
9935;BME280;5006;41.828;23.478;2022-09-27T03:26:17;89512.91;;;16.89;100.00
9935;BME280;5006;41.828;23.478;2022-09-27T03:27:23;89510.53;;;16.70;100.00
9935;BME280;5006;41.828;23.478;2022-09-27T03:28:28;89518.63;;;16.91;100.00
9935;BME280;5006;41.828;23.478;2022-09-27T03:29:34;89520.69;;;17.39;100.00
9935;BME280;5006;41.828;23.478;2022-09-27T03:30:44;89520.72;;;17.48;100.00
9935;BME280;5006;41.828;23.478;2022-09-27T03:32:08;89524.25;;;17.66;100.00
9935;BME280;5006;41.828;23.478;2022-09-27T03:33:52;89520.84;;;17.93;100.00
9935;BME280;5006;41.828;23.478;2022-09-27T03:34:59;89521.28;;;17.91;100.00
9935;BME280;5006;41.828;23.478;2022-09-27T03:36:05;89512.09;;;17.80;100.00
9935;BME280;5006;41.828;23.478;2022-09-27T03:37:11;89494.41;;;17.57;100.00
9935;BME280;5006;41.828;23.478;2022-09-27T03:38:16;89491.63;;;17.40;100.00
9935;BME280;5006;41.828;23.478;2022-09-27T03:39:21;89479.19;;;17.21;100.00
9935;BME280;5006;41.828;23.478;2022-09-27T03:40:27;89474.47;;;17.03;100.00
9935;BME280;5006;41.828;23.478;2022-09-27T03:41:32;89480.88;;;17.27;100.00
9935;BME280;5006;41.828;23.478;2022-09-27T03:42:39;89490.34;;;17.23;100.00
9935;BME280;5006;41.828;23.478;2022-09-27T03:43:44;89497.22;;;17.45;100.00
9935;BME280;5006;41.828;23.478;2022-09-27T03:44:50;89491.41;;;17.25;100.00
9935;BME280;5006;41.828;23.478;2022-09-27T03:45:55;89491.06;;;17.23;100.00
9935;BME280;5006;41.828;23.478;2022-09-27T03:47:00;89497.56;;;17.26;100.00
9935;BME280;5006;41.828;23.478;2022-09-27T03:48:05;89498.16;;;17.21;100.00
9935;BME280;5006;41.828;23.478;2022-09-27T03:49:11;89495.53;;;17.08;100.00
9935;BME280;5006;41.828;23.478;2022-09-27T03:50:17;89487.63;;;17.23;100.00
9935;BME280;5006;41.828;23.478;2022-09-27T03:51:23;89486.06;;;17.43;100.00
9935;BME280;5006;41.828;23.478;2022-09-27T03:52:28;89477.09;;;17.25;100.00
9935;BME280;5006;41.828;23.478;2022-09-27T03:53:34;89478.84;;;17.40;100.00
9935;BME280;5006;41.828;23.478;2022-09-27T03:54:39;89480.97;;;17.45;100.00
9935;BME280;5006;41.828;23.478;2022-09-27T03:55:46;89470.19;;;17.63;100.00
9935;BME280;5006;41.828;23.478;2022-09-27T03:56:51;89486.59;;;17.77;100.00
9935;BME280;5006;41.828;23.478;2022-09-27T03:57:57;89492.78;;;17.69;100.00
9935;BME280;5006;41.828;23.478;2022-09-27T03:59:02;89493.22;;;17.67;100.00
9935;BME280;5006;41.828;23.478;2022-09-27T04:00:18;89492.31;;;17.79;100.00
9935;BME280;5006;41.828;23.478;2022-09-27T04:01:23;89501.19;;;17.62;100.00
9935;BME280;5006;41.828;23.478;2022-09-27T04:02:33;89504.25;;;17.82;100.00
9935;BME280;5006;41.828;23.478;2022-09-27T04:04:13;89502.84;;;17.59;100.00
9935;BME280;5006;41.828;23.478;2022-09-27T04:05:20;89497.84;;;17.58;100.00
9935;BME280;5006;41.828;23.478;2022-09-27T04:06:25;89501.66;;;17.69;100.00
9935;BME280;5006;41.828;23.478;2022-09-27T04:07:30;89499.84;;;17.66;100.00
9935;BME280;5006;41.828;23.478;2022-09-27T04:08:36;89500.41;;;17.22;100.00
9935;BME280;5006;41.828;23.478;2022-09-27T04:09:43;89506.50;;;17.35;100.00
9935;BME280;5006;41.828;23.478;2022-09-27T04:10:49;89501.66;;;17.30;100.00
9935;BME280;5006;41.828;23.478;2022-09-27T04:11:55;89511.81;;;17.39;100.00
9935;BME280;5006;41.828;23.478;2022-09-27T04:13:00;89502.97;;;17.56;100.00
9935;BME280;5006;41.828;23.478;2022-09-27T04:14:10;89497.19;;;17.84;100.00
9935;BME280;5006;41.828;23.478;2022-09-27T04:15:30;89489.16;;;17.72;100.00
9935;BME280;5006;41.828;23.478;2022-09-27T04:16:55;89485.88;;;17.95;100.00
9935;BME280;5006;41.828;23.478;2022-09-27T04:18:21;89491.31;;;18.13;100.00
9935;BME280;5006;41.828;23.478;2022-09-27T04:19:26;89498.56;;;18.25;100.00
9935;BME280;5006;41.828;23.478;2022-09-27T04:20:44;89494.53;;;18.38;100.00
9935;BME280;5006;41.828;23.478;2022-09-27T04:21:52;89498.28;;;18.50;100.00
9935;BME280;5006;41.828;23.478;2022-09-27T04:22:58;89491.31;;;18.76;100.00
9935;BME280;5006;41.828;23.478;2022-09-27T04:24:03;89489.84;;;18.66;100.00
9935;BME280;5006;41.828;23.478;2022-09-27T04:25:10;89480.00;;;18.86;100.00
9935;BME280;5006;41.828;23.478;2022-09-27T04:26:18;89484.56;;;18.62;100.00
9935;BME280;5006;41.828;23.478;2022-09-27T04:27:31;89489.22;;;18.26;100.00
9935;BME280;5006;41.828;23.478;2022-09-27T04:28:36;89489.38;;;18.31;100.00
9935;BME280;5006;41.828;23.478;2022-09-27T04:29:42;89492.09;;;18.67;100.00
9935;BME280;5006;41.828;23.478;2022-09-27T04:31:06;89484.94;;;18.97;100.00
9935;BME280;5006;41.828;23.478;2022-09-27T04:32:30;89484.72;;;18.59;100.00
9935;BME280;5006;41.828;23.478;2022-09-27T04:33:53;89495.44;;;18.53;100.00
9935;BME280;5006;41.828;23.478;2022-09-27T04:35:05;89493.47;;;18.45;100.00
9935;BME280;5006;41.828;23.478;2022-09-27T04:36:29;89486.03;;;17.91;100.00
9935;BME280;5006;41.828;23.478;2022-09-27T04:37:40;89484.09;;;18.01;100.00
9935;BME280;5006;41.828;23.478;2022-09-27T04:38:47;89488.31;;;18.11;100.00
9935;BME280;5006;41.828;23.478;2022-09-27T04:39:57;89502.81;;;18.62;100.00
9935;BME280;5006;41.828;23.478;2022-09-27T04:41:03;89506.47;;;18.41;100.00
9935;BME280;5006;41.828;23.478;2022-09-27T04:42:11;89512.88;;;18.16;100.00
9935;BME280;5006;41.828;23.478;2022-09-27T04:43:17;89506.41;;;18.14;100.00
9935;BME280;5006;41.828;23.478;2022-09-27T04:44:22;89499.03;;;18.32;100.00
9935;BME280;5006;41.828;23.478;2022-09-27T04:45:28;89488.63;;;18.58;100.00
9935;BME280;5006;41.828;23.478;2022-09-27T04:46:32;89483.00;;;17.89;100.00
9935;BME280;5006;41.828;23.478;2022-09-27T04:47:41;89480.66;;;18.36;100.00
9935;BME280;5006;41.828;23.478;2022-09-27T04:48:47;89482.00;;;18.68;100.00
9935;BME280;5006;41.828;23.478;2022-09-27T04:49:52;89490.00;;;18.53;100.00
9935;BME280;5006;41.828;23.478;2022-09-27T04:50:58;89481.38;;;18.01;100.00
9935;BME280;5006;41.828;23.478;2022-09-27T04:52:07;89483.91;;;17.77;100.00
9935;BME280;5006;41.828;23.478;2022-09-27T04:53:13;89477.44;;;17.93;100.00
9935;BME280;5006;41.828;23.478;2022-09-27T04:54:19;89479.22;;;17.87;100.00
9935;BME280;5006;41.828;23.478;2022-09-27T04:55:33;89479.84;;;17.91;100.00
9935;BME280;5006;41.828;23.478;2022-09-27T04:56:38;89481.78;;;17.72;100.00
9935;BME280;5006;41.828;23.478;2022-09-27T04:57:45;89487.22;;;17.90;100.00
9935;BME280;5006;41.828;23.478;2022-09-27T04:58:51;89490.84;;;17.87;100.00
9935;BME280;5006;41.828;23.478;2022-09-27T04:59:55;89495.00;;;17.61;100.00
9935;BME280;5006;41.828;23.478;2022-09-27T05:01:02;89486.94;;;17.88;100.00
9935;BME280;5006;41.828;23.478;2022-09-27T05:02:36;89475.34;;;18.51;100.00
9935;BME280;5006;41.828;23.478;2022-09-27T05:04:01;89472.44;;;18.90;100.00
9935;BME280;5006;41.828;23.478;2022-09-27T05:05:08;89461.44;;;18.76;100.00
9935;BME280;5006;41.828;23.478;2022-09-27T05:06:17;89464.03;;;18.61;100.00
9935;BME280;5006;41.828;23.478;2022-09-27T05:07:24;89458.16;;;17.91;100.00
9935;BME280;5006;41.828;23.478;2022-09-27T05:08:34;89457.25;;;17.76;100.00
9935;BME280;5006;41.828;23.478;2022-09-27T05:10:09;89461.06;;;17.48;100.00
9935;BME280;5006;41.828;23.478;2022-09-27T05:11:15;89465.19;;;17.61;100.00
9935;BME280;5006;41.828;23.478;2022-09-27T05:12:36;89467.81;;;18.01;100.00
9935;BME280;5006;41.828;23.478;2022-09-27T05:13:42;89466.59;;;18.11;100.00
9935;BME280;5006;41.828;23.478;2022-09-27T05:14:48;89466.00;;;18.25;100.00
9935;BME280;5006;41.828;23.478;2022-09-27T05:15:53;89466.75;;;18.07;100.00
9935;BME280;5006;41.828;23.478;2022-09-27T05:17:19;89474.00;;;18.28;100.00
9935;BME280;5006;41.828;23.478;2022-09-27T05:18:54;89464.81;;;18.17;100.00
9935;BME280;5006;41.828;23.478;2022-09-27T05:20:38;89462.38;;;18.19;100.00
9935;BME280;5006;41.828;23.478;2022-09-27T05:21:51;89464.78;;;17.81;100.00
9935;BME280;5006;41.828;23.478;2022-09-27T05:22:57;89465.03;;;17.56;100.00
9935;BME280;5006;41.828;23.478;2022-09-27T05:24:03;89474.69;;;17.66;100.00
9935;BME280;5006;41.828;23.478;2022-09-27T05:25:08;89479.38;;;17.92;100.00
9935;BME280;5006;41.828;23.478;2022-09-27T05:26:14;89479.25;;;17.96;100.00
9935;BME280;5006;41.828;23.478;2022-09-27T05:27:19;89473.84;;;18.05;100.00
9935;BME280;5006;41.828;23.478;2022-09-27T05:28:25;89471.56;;;18.03;100.00
9935;BME280;5006;41.828;23.478;2022-09-27T05:29:30;89463.72;;;18.05;100.00
9935;BME280;5006;41.828;23.478;2022-09-27T05:30:46;89461.75;;;17.97;100.00
9935;BME280;5006;41.828;23.478;2022-09-27T05:31:57;89466.31;;;18.18;100.00
9935;BME280;5006;41.828;23.478;2022-09-27T05:33:02;89466.44;;;17.96;100.00
9935;BME280;5006;41.828;23.478;2022-09-27T05:34:26;89475.72;;;17.59;100.00
9935;BME280;5006;41.828;23.478;2022-09-27T05:35:40;89476.47;;;17.60;100.00
9935;BME280;5006;41.828;23.478;2022-09-27T05:36:51;89471.06;;;17.69;100.00
9935;BME280;5006;41.828;23.478;2022-09-27T05:37:58;89465.66;;;17.69;100.00
9935;BME280;5006;41.828;23.478;2022-09-27T05:39:07;89465.53;;;18.17;100.00
9935;BME280;5006;41.828;23.478;2022-09-27T05:40:13;89464.19;;;18.04;100.00
9935;BME280;5006;41.828;23.478;2022-09-27T05:41:19;89455.44;;;18.00;100.00
9935;BME280;5006;41.828;23.478;2022-09-27T05:42:24;89456.81;;;18.22;100.00
9935;BME280;5006;41.828;23.478;2022-09-27T05:43:31;89462.53;;;18.24;100.00
9935;BME280;5006;41.828;23.478;2022-09-27T05:44:39;89456.66;;;18.08;100.00
9935;BME280;5006;41.828;23.478;2022-09-27T05:45:44;89466.56;;;17.84;100.00
9935;BME280;5006;41.828;23.478;2022-09-27T05:46:51;89461.63;;;18.00;100.00
9935;BME280;5006;41.828;23.478;2022-09-27T05:47:57;89460.72;;;18.21;100.00
9935;BME280;5006;41.828;23.478;2022-09-27T05:49:05;89463.28;;;18.25;100.00
9935;BME280;5006;41.828;23.478;2022-09-27T05:50:09;89462.66;;;18.12;100.00
9935;BME280;5006;41.828;23.478;2022-09-27T05:51:16;89461.91;;;17.84;100.00
9935;BME280;5006;41.828;23.478;2022-09-27T05:52:23;89478.06;;;18.06;100.00
9935;BME280;5006;41.828;23.478;2022-09-27T05:53:30;89476.53;;;17.96;100.00
9935;BME280;5006;41.828;23.478;2022-09-27T05:54:36;89472.66;;;18.15;100.00
9935;BME280;5006;41.828;23.478;2022-09-27T05:55:42;89466.91;;;18.22;100.00
9935;BME280;5006;41.828;23.478;2022-09-27T05:56:48;89463.59;;;18.36;100.00
9935;BME280;5006;41.828;23.478;2022-09-27T05:58:02;89466.47;;;18.50;100.00
9935;BME280;5006;41.828;23.478;2022-09-27T05:59:21;89481.06;;;18.71;100.00
9935;BME280;5006;41.828;23.478;2022-09-27T06:01:08;89478.06;;;18.51;100.00
9935;BME280;5006;41.828;23.478;2022-09-27T06:02:53;89486.06;;;18.45;100.00
9935;BME280;5006;41.828;23.478;2022-09-27T06:04:34;89494.38;;;18.69;100.00
9935;BME280;5006;41.828;23.478;2022-09-27T06:06:06;89488.03;;;18.45;100.00
9935;BME280;5006;41.828;23.478;2022-09-27T06:07:21;89482.75;;;18.50;100.00
9935;BME280;5006;41.828;23.478;2022-09-27T06:08:25;89473.13;;;18.49;100.00
9935;BME280;5006;41.828;23.478;2022-09-27T06:09:33;89475.97;;;18.55;100.00
9935;BME280;5006;41.828;23.478;2022-09-27T06:10:39;89474.03;;;18.37;100.00
9935;BME280;5006;41.828;23.478;2022-09-27T06:11:46;89474.44;;;18.63;100.00
9935;BME280;5006;41.828;23.478;2022-09-27T06:12:58;89471.13;;;18.50;100.00
9935;BME280;5006;41.828;23.478;2022-09-27T06:14:12;89471.31;;;18.46;100.00
9935;BME280;5006;41.828;23.478;2022-09-27T06:15:31;89463.28;;;18.25;100.00
9935;BME280;5006;41.828;23.478;2022-09-27T06:16:37;89474.91;;;18.52;100.00
9935;BME280;5006;41.828;23.478;2022-09-27T06:17:42;89475.06;;;18.49;100.00
9935;BME280;5006;41.828;23.478;2022-09-27T06:18:53;89480.63;;;18.45;100.00
9935;BME280;5006;41.828;23.478;2022-09-27T06:19:58;89478.66;;;18.64;100.00
9935;BME280;5006;41.828;23.478;2022-09-27T06:21:05;89475.06;;;18.49;100.00
9935;BME280;5006;41.828;23.478;2022-09-27T06:22:12;89483.66;;;18.29;100.00
9935;BME280;5006;41.828;23.478;2022-09-27T06:23:35;89483.22;;;18.40;100.00
9935;BME280;5006;41.828;23.478;2022-09-27T06:24:51;89478.97;;;18.39;100.00
9935;BME280;5006;41.828;23.478;2022-09-27T06:26:02;89491.91;;;18.26;100.00